Oostburg, Wisconsin
Current Conditions -  °F | °C
As of 9:53 AM on Tuesday 21 Oct 2014 (Local Time) from KSBM Reporting Station
Overcast Overcast  
Wind Chill: 40°   Ceiling: 2500
Heat Index: 45°   Visibility: 10mi
Dew Point: 38°   Wind: 9mph
Humidity: 76%   Direction: 360°N
Pressure: 30.19"   Gusts: NA
Location:  43.62°N, 87.79°W
Report Text: KSBM 211453Z AUTO 36008KT 10SM OVC025 07/03 A3019 RMK AO2 SLP227 T00720033 51021
Loading
Personal Weather Stations






























Interactive Weather Map New forecast layout! Learn more

10-Day Weather Forecast

Advertisements
Track Severe Weather on mobile